Time;durP1;ratioP1;P1;durP2;ratioP2;P2;SDS_P1;SDS_P2;PMS_P1;PMS_P2;Temp;Humidity;BMP_temperature;BMP_pressure;BME280_temperature;BME280_humidity;BME280_pressure;Samples;Min_cycle;Max_cycle;Signal;HPM_P1;HPM_P2
2023/06/16 00:01:40;;;;;;;22.77;14.70;;;18.40;99.90;;;;;;4951240;28;20015;-71
2023/06/16 00:04:06;;;;;;;20.90;13.82;;;18.30;99.90;;;;;;4955447;28;20015;-72
2023/06/16 00:06:32;;;;;;;17.85;14.88;;;18.30;99.90;;;;;;4955542;28;20027;-72
2023/06/16 00:08:58;;;;;;;19.48;14.52;;;18.40;99.90;;;;;;4943859;28;20024;-72
2023/06/16 00:11:27;;;;;;;21.17;14.98;;;18.30;99.90;;;;;;4951240;29;20023;-72
2023/06/16 00:13:53;;;;;;;22.63;15.30;;;18.30;99.90;;;;;;4946014;29;20033;-72
2023/06/16 00:16:19;;;;;;;21.77;14.20;;;18.30;99.90;;;;;;4955767;28;20019;-71
2023/06/16 00:18:49;;;;;;;21.15;14.45;;;18.30;99.90;;;;;;4951506;28;20034;-72
2023/06/16 00:21:19;;;;;;;24.13;15.27;;;18.30;99.90;;;;;;4948315;29;20073;-72
2023/06/16 00:23:48;;;;;;;19.33;14.70;;;18.30;99.90;;;;;;4947516;28;20023;-72
2023/06/16 00:26:14;;;;;;;21.20;14.23;;;18.30;99.90;;;;;;4955162;28;20012;-71
2023/06/16 00:28:40;;;;;;;17.65;13.50;;;18.30;99.90;;;;;;4953450;28;20543;-72
2023/06/16 00:31:06;;;;;;;21.60;13.52;;;18.30;99.90;;;;;;4948089;28;20114;-72
2023/06/16 00:33:32;;;;;;;17.80;13.02;;;18.30;99.90;;;;;;4950365;28;20099;-71
2023/06/16 00:35:58;;;;;;;19.63;13.52;;;18.30;99.90;;;;;;4948580;29;20082;-71
2023/06/16 00:38:23;;;;;;;21.60;12.93;;;18.30;99.90;;;;;;4945650;28;20423;-72
2023/06/16 00:40:49;;;;;;;18.75;13.30;;;18.30;99.90;;;;;;4948085;29;20482;-72
2023/06/16 00:43:15;;;;;;;16.27;12.45;;;18.30;99.90;;;;;;4950615;28;20043;-72
2023/06/16 00:45:41;;;;;;;14.95;11.55;;;18.30;99.90;;;;;;4948616;29;20031;-71
2023/06/16 00:48:06;;;;;;;17.48;12.55;;;18.40;99.90;;;;;;4937965;28;20035;-72
2023/06/16 00:50:33;;;;;;;18.25;12.38;;;18.30;99.90;;;;;;4936231;29;20418;-72
2023/06/16 00:52:59;;;;;;;23.73;11.70;;;18.20;99.90;;;;;;4942589;29;20034;-72
2023/06/16 00:55:28;;;;;;;17.90;12.70;;;18.30;99.90;;;;;;4954582;28;20493;-72
2023/06/16 00:57:54;;;;;;;24.33;11.27;;;18.20;99.90;;;;;;4951393;28;20027;-72
2023/06/16 01:00:21;;;;;;;16.80;11.85;;;18.20;99.90;;;;;;4950781;28;20039;-72
2023/06/16 01:02:47;;;;;;;13.77;11.40;;;18.20;99.90;;;;;;4952108;29;20023;-72
2023/06/16 01:05:17;;;;;;;17.27;12.00;;;18.30;99.90;;;;;;4952966;28;20438;-72
2023/06/16 01:08:04;;;;;;;17.27;11.10;;;18.20;99.90;;;;;;4947731;29;20102;-72
2023/06/16 01:10:45;;;;;;;16.58;11.35;;;18.30;99.90;;;;;;4951385;28;20028;-72
2023/06/16 01:13:26;;;;;;;16.65;12.13;;;18.20;99.90;;;;;;4948234;29;20035;-72
2023/06/16 01:15:53;;;;;;;17.02;11.45;;;18.30;99.90;;;;;;4951811;28;20031;-72
2023/06/16 01:18:22;;;;;;;16.88;11.60;;;18.30;99.90;;;;;;4953785;28;20023;-72
2023/06/16 01:21:17;;;;;;;15.25;11.65;;;18.20;99.90;;;;;;4952391;28;20027;-72
2023/06/16 01:24:23;;;;;;;17.73;11.95;;;18.20;99.90;;;;;;4952062;28;20038;-72
2023/06/16 01:26:52;;;;;;;17.65;11.20;;;18.30;99.90;;;;;;4970618;28;20027;-72
2023/06/16 01:29:21;;;;;;;15.60;11.32;;;18.20;99.90;;;;;;4949512;28;20122;-72
2023/06/16 01:31:50;;;;;;;16.30;11.02;;;18.20;99.90;;;;;;4953186;29;20038;-72
2023/06/16 01:34:17;;;;;;;14.82;10.50;;;18.20;99.90;;;;;;4950418;28;20027;-72
2023/06/16 01:36:44;;;;;;;16.60;11.02;;;18.10;99.90;;;;;;4953375;28;20028;-72
2023/06/16 01:39:11;;;;;;;15.38;10.98;;;18.10;99.90;;;;;;4953527;28;20035;-72
2023/06/16 01:41:38;;;;;;;17.23;10.60;;;18.10;99.90;;;;;;4947315;28;20130;-72
2023/06/16 01:44:05;;;;;;;18.45;11.70;;;18.10;99.90;;;;;;4948446;29;20526;-72
2023/06/16 01:46:32;;;;;;;17.52;11.85;;;18.00;99.90;;;;;;4941478;29;20475;-72
2023/06/16 01:48:58;;;;;;;21.55;11.68;;;18.00;99.90;;;;;;4941633;29;20036;-72
2023/06/16 01:51:24;;;;;;;16.65;11.23;;;18.00;99.90;;;;;;4949013;29;20020;-72
2023/06/16 01:53:52;;;;;;;18.42;11.23;;;17.90;99.90;;;;;;4951525;29;20530;-72
2023/06/16 01:56:18;;;;;;;13.52;10.65;;;17.90;99.90;;;;;;4945705;28;20027;-72
2023/06/16 01:58:44;;;;;;;17.25;10.85;;;17.90;99.90;;;;;;4953756;28;20042;-72
2023/06/16 02:01:30;;;;;;;17.92;10.57;;;17.80;99.90;;;;;;4948302;28;20020;-72
2023/06/16 02:04:04;;;;;;;13.82;10.23;;;17.80;99.90;;;;;;4951921;29;20043;-72
2023/06/16 02:06:37;;;;;;;12.45;10.23;;;17.80;99.90;;;;;;4949961;28;20031;-71
2023/06/16 02:09:05;;;;;;;14.88;10.30;;;17.70;99.90;;;;;;4953593;28;20034;-72
2023/06/16 02:11:32;;;;;;;11.13;9.68;;;17.70;99.90;;;;;;4951521;28;20027;-72
2023/06/16 02:13:57;;;;;;;12.98;10.00;;;17.70;99.90;;;;;;4952044;29;20043;-72
2023/06/16 02:16:24;;;;;;;12.43;9.85;;;17.70;99.90;;;;;;4940507;28;20435;-71
2023/06/16 02:18:53;;;;;;;12.68;9.57;;;17.70;99.90;;;;;;4958934;28;20027;-71
2023/06/16 02:21:20;;;;;;;15.38;10.40;;;17.70;99.90;;;;;;4951810;28;20126;-72
2023/06/16 02:23:45;;;;;;;13.18;9.90;;;17.70;99.90;;;;;;4948781;28;20123;-72
2023/06/16 02:26:11;;;;;;;13.10;9.95;;;17.60;99.90;;;;;;4949365;28;20102;-71
2023/06/16 02:28:37;;;;;;;13.63;9.95;;;17.60;99.90;;;;;;4953187;28;20094;-71
2023/06/16 02:31:02;;;;;;;17.35;9.93;;;17.50;99.90;;;;;;4947821;28;20546;-71
2023/06/16 02:33:28;;;;;;;14.85;9.65;;;17.50;99.90;;;;;;4955309;28;20019;-71
2023/06/16 02:35:54;;;;;;;12.82;9.07;;;17.50;99.90;;;;;;4949635;28;20027;-72
2023/06/16 02:38:19;;;;;;;12.52;9.25;;;17.50;99.90;;;;;;4956493;28;20122;-71
2023/06/16 02:40:45;;;;;;;15.13;9.77;;;17.50;99.90;;;;;;4956766;28;20027;-72
2023/06/16 02:43:11;;;;;;;12.73;9.05;;;17.40;99.90;;;;;;4956816;28;20051;-72
2023/06/16 02:45:36;;;;;;;13.80;8.63;;;17.40;99.90;;;;;;4954776;28;20081;-71
2023/06/16 02:48:02;;;;;;;12.80;8.55;;;17.40;99.90;;;;;;4956882;28;20031;-72
2023/06/16 02:50:27;;;;;;;12.40;8.43;;;17.40;99.90;;;;;;4946610;28;20083;-71
2023/06/16 02:52:55;;;;;;;13.23;8.30;;;17.30;99.90;;;;;;4948958;28;20149;-71
2023/06/16 02:55:21;;;;;;;10.55;8.13;;;17.30;99.90;;;;;;4955707;28;20023;-72
2023/06/16 02:57:46;;;;;;;11.10;8.35;;;17.30;99.90;;;;;;4946163;28;20046;-71
2023/06/16 03:00:12;;;;;;;12.45;8.68;;;17.30;99.90;;;;;;4951708;28;20070;-72
2023/06/16 03:02:38;;;;;;;11.13;7.63;;;17.30;99.90;;;;;;4956384;28;20021;-72
2023/06/16 03:05:04;;;;;;;12.00;7.60;;;17.30;99.90;;;;;;4954564;28;20094;-72
2023/06/16 03:07:33;;;;;;;12.02;7.53;;;17.30;99.90;;;;;;4952463;28;20106;-71
2023/06/16 03:09:59;;;;;;;12.30;8.05;;;17.30;99.90;;;;;;4947083;28;20031;-71
2023/06/16 03:12:25;;;;;;;12.90;7.85;;;17.30;99.90;;;;;;4951554;29;20035;-71
2023/06/16 03:14:50;;;;;;;15.05;8.68;;;17.30;99.90;;;;;;4952026;28;20027;-71
2023/06/16 03:17:20;;;;;;;10.88;7.82;;;17.20;99.90;;;;;;4950963;28;20050;-71
2023/06/16 03:19:47;;;;;;;11.25;7.70;;;17.30;99.90;;;;;;4944389;29;20081;-72
2023/06/16 03:22:12;;;;;;;12.77;8.18;;;17.30;99.90;;;;;;4949415;28;20027;-72
2023/06/16 03:24:38;;;;;;;13.95;7.82;;;17.20;99.90;;;;;;4956351;28;20066;-71
2023/06/16 03:27:04;;;;;;;11.35;7.95;;;17.20;99.90;;;;;;4956147;28;20635;-71
2023/06/16 03:29:30;;;;;;;13.13;8.73;;;17.10;99.90;;;;;;4956062;28;20034;-71
2023/06/16 03:31:55;;;;;;;12.05;7.65;;;17.10;99.90;;;;;;4956260;28;20023;-71
2023/06/16 03:34:22;;;;;;;10.10;7.50;;;17.10;99.90;;;;;;4950372;29;20351;-71
2023/06/16 03:36:48;;;;;;;14.15;7.80;;;17.00;99.90;;;;;;4956223;28;20038;-72
2023/06/16 03:39:14;;;;;;;13.57;7.63;;;17.00;99.90;;;;;;4948584;29;20025;-71
2023/06/16 03:41:39;;;;;;;11.70;7.53;;;17.00;99.90;;;;;;4954822;28;20047;-71
2023/06/16 03:44:05;;;;;;;12.15;7.47;;;17.00;99.90;;;;;;4951025;28;20035;-71
2023/06/16 03:46:31;;;;;;;9.88;7.53;;;17.00;99.90;;;;;;4954968;28;20026;-71
2023/06/16 03:48:57;;;;;;;15.30;7.30;;;17.00;99.90;;;;;;4956110;28;20644;-72
2023/06/16 03:51:24;;;;;;;18.67;12.52;;;16.90;99.90;;;;;;4956127;28;20094;-72
2023/06/16 03:53:50;;;;;;;12.50;8.02;;;16.90;99.90;;;;;;4949998;28;20475;-72
2023/06/16 03:56:17;;;;;;;12.98;7.32;;;16.90;99.90;;;;;;4956062;29;20055;-72
2023/06/16 03:58:42;;;;;;;10.75;7.28;;;16.90;99.90;;;;;;4955909;28;20027;-72
2023/06/16 04:01:09;;;;;;;9.05;7.28;;;16.90;99.90;;;;;;4955761;28;20498;-72
2023/06/16 04:03:35;;;;;;;10.32;7.93;;;16.90;99.90;;;;;;4955738;28;20459;-72
2023/06/16 04:06:00;;;;;;;13.23;7.95;;;16.90;99.90;;;;;;4955647;28;20019;-72
2023/06/16 04:08:26;;;;;;;11.18;7.38;;;16.90;99.90;;;;;;4943263;28;20031;-72
2023/06/16 04:10:57;;;;;;;11.50;7.95;;;16.90;99.90;;;;;;4955228;29;20110;-72
2023/06/16 04:13:23;;;;;;;12.25;7.25;;;16.90;99.90;;;;;;4941515;28;20039;-72
2023/06/16 04:15:49;;;;;;;12.27;7.72;;;16.90;99.90;;;;;;4950852;29;20030;-72
2023/06/16 04:18:15;;;;;;;13.73;7.80;;;16.90;99.90;;;;;;4946190;29;20023;-72
2023/06/16 04:20:40;;;;;;;13.48;7.38;;;16.90;99.90;;;;;;4942348;28;20027;-72
2023/06/16 04:23:09;;;;;;;11.15;7.43;;;16.90;99.90;;;;;;4954270;28;20023;-72
2023/06/16 04:25:35;;;;;;;13.18;7.40;;;16.90;99.90;;;;;;4955272;28;20030;-72
2023/06/16 04:28:02;;;;;;;9.32;7.00;;;16.90;99.90;;;;;;4955237;28;20032;-72
2023/06/16 04:30:30;;;;;;;11.45;7.03;;;16.90;99.90;;;;;;4955275;28;20027;-72
2023/06/16 04:32:58;;;;;;;11.73;7.55;;;16.90;99.90;;;;;;4955419;28;20034;-72
2023/06/16 04:35:27;;;;;;;9.32;7.82;;;16.90;99.90;;;;;;4940991;28;20046;-72
2023/06/16 04:37:56;;;;;;;9.27;6.90;;;16.90;99.90;;;;;;4947725;28;20110;-72
2023/06/16 04:40:23;;;;;;;11.45;7.22;;;17.00;99.90;;;;;;4943874;28;20398;-72
2023/06/16 04:42:49;;;;;;;14.07;7.43;;;17.00;99.90;;;;;;4951552;29;20069;-71
2023/06/16 04:45:15;;;;;;;12.90;7.35;;;17.00;99.90;;;;;;4955284;28;20111;-72
2023/06/16 04:47:42;;;;;;;13.73;8.38;;;17.00;99.90;;;;;;4954430;28;20038;-72
2023/06/16 04:50:09;;;;;;;11.95;7.82;;;17.00;99.90;;;;;;4955045;28;20027;-72
2023/06/16 04:52:37;;;;;;;10.60;7.75;;;17.10;99.90;;;;;;4954676;28;20102;-72
2023/06/16 04:55:06;;;;;;;13.32;7.90;;;17.10;99.90;;;;;;4952500;28;20058;-72
2023/06/16 04:57:33;;;;;;;12.32;8.35;;;17.10;99.90;;;;;;4949255;28;20082;-72
2023/06/16 05:00:00;;;;;;;15.35;8.50;;;17.10;99.90;;;;;;4954640;28;20430;-72
2023/06/16 05:02:26;;;;;;;12.30;8.40;;;17.10;99.90;;;;;;4954069;28;20513;-72
2023/06/16 05:04:52;;;;;;;11.05;8.05;;;17.20;99.90;;;;;;4947151;28;20031;-72
2023/06/16 05:07:18;;;;;;;12.98;8.00;;;17.20;99.90;;;;;;4951201;28;20039;-72
2023/06/16 05:09:44;;;;;;;13.63;7.82;;;17.20;99.90;;;;;;4937115;29;20422;-73
2023/06/16 05:12:10;;;;;;;12.90;7.95;;;17.30;99.90;;;;;;4940870;29;20031;-72
2023/06/16 05:14:35;;;;;;;10.20;6.88;;;17.40;99.90;;;;;;4952964;28;20031;-72
2023/06/16 05:17:01;;;;;;;10.77;7.35;;;17.40;99.90;;;;;;4949766;28;20434;-72
2023/06/16 05:19:29;;;;;;;11.43;7.15;;;17.50;99.90;;;;;;4951002;28;20029;-72
2023/06/16 05:21:55;;;;;;;12.20;7.13;;;17.50;99.90;;;;;;4949751;28;20031;-72
2023/06/16 05:24:20;;;;;;;15.85;7.55;;;17.60;99.90;;;;;;4943482;28;20023;-73
2023/06/16 05:26:46;;;;;;;10.68;7.57;;;17.60;99.90;;;;;;4954317;28;20027;-73
2023/06/16 05:29:11;;;;;;;17.23;7.10;;;17.60;99.90;;;;;;4952205;28;20520;-74
2023/06/16 05:31:37;;;;;;;10.63;6.68;;;17.70;99.90;;;;;;4942925;28;20086;-74
2023/06/16 05:34:03;;;;;;;12.30;6.85;;;17.70;99.90;;;;;;4953670;28;20027;-74
2023/06/16 05:36:34;;;;;;;11.32;6.93;;;17.80;99.90;;;;;;4952081;28;20038;-74
2023/06/16 05:39:01;;;;;;;11.52;7.47;;;17.90;99.90;;;;;;4947509;29;20027;-73
2023/06/16 05:41:27;;;;;;;10.75;6.90;;;17.90;99.90;;;;;;4950730;28;20080;-73
2023/06/16 05:43:57;;;;;;;12.77;7.32;;;18.00;99.90;;;;;;4949557;29;20030;-73
2023/06/16 05:46:23;;;;;;;13.73;7.32;;;18.00;99.90;;;;;;4951199;28;20037;-74
2023/06/16 05:48:48;;;;;;;10.27;6.05;;;18.10;99.90;;;;;;4952357;28;20032;-74
2023/06/16 05:51:15;;;;;;;9.85;7.00;;;18.10;99.90;;;;;;4951645;28;20467;-75
2023/06/16 05:53:41;;;;;;;12.73;6.88;;;18.20;99.90;;;;;;4953782;28;20023;-75
2023/06/16 05:56:07;;;;;;;11.52;6.88;;;18.30;99.90;;;;;;4953055;28;20371;-75
2023/06/16 05:58:36;;;;;;;10.80;6.10;;;18.30;99.90;;;;;;4952953;28;20118;-75
2023/06/16 06:01:09;;;;;;;10.93;6.35;;;18.40;99.90;;;;;;4953327;28;20106;-73
2023/06/16 06:03:35;;;;;;;14.13;7.20;;;18.40;99.90;;;;;;4953509;28;20082;-74
2023/06/16 06:06:01;;;;;;;11.18;6.45;;;18.50;99.90;;;;;;4954092;28;20466;-74
2023/06/16 06:08:28;;;;;;;11.95;6.85;;;18.50;99.90;;;;;;4943854;28;20074;-74
2023/06/16 06:10:56;;;;;;;9.15;6.25;;;18.60;99.90;;;;;;4950750;29;20031;-75
2023/06/16 06:13:22;;;;;;;7.53;5.50;;;18.60;99.90;;;;;;4945907;29;20047;-74
2023/06/16 06:15:48;;;;;;;11.60;6.28;;;18.60;99.90;;;;;;4941314;28;20051;-75
2023/06/16 06:18:13;;;;;;;8.00;5.65;;;18.70;99.90;;;;;;4953950;28;20034;-74
2023/06/16 06:20:39;;;;;;;11.95;6.50;;;18.70;99.90;;;;;;4950645;28;20024;-74
2023/06/16 06:23:05;;;;;;;11.55;6.13;;;18.80;99.90;;;;;;4953475;28;20093;-74
2023/06/16 06:25:31;;;;;;;8.48;5.88;;;18.90;99.90;;;;;;4943739;28;20031;-74
2023/06/16 06:27:57;;;;;;;10.43;5.82;;;19.00;99.90;;;;;;4939618;28;20024;-74
2023/06/16 06:30:24;;;;;;;10.70;6.57;;;19.10;99.90;;;;;;4946017;29;20055;-74
2023/06/16 06:32:50;;;;;;;10.98;6.00;;;19.20;99.90;;;;;;4953755;28;20090;-74
2023/06/16 06:35:16;;;;;;;11.00;6.20;;;19.30;99.90;;;;;;4951978;29;20111;-75
2023/06/16 06:37:42;;;;;;;11.32;6.28;;;19.40;99.90;;;;;;4951510;28;20102;-74
2023/06/16 06:40:08;;;;;;;9.55;5.63;;;19.50;99.90;;;;;;4950928;28;20178;-74
2023/06/16 06:42:33;;;;;;;8.80;5.57;;;19.60;99.90;;;;;;4951973;29;20054;-74
2023/06/16 06:44:59;;;;;;;8.27;5.50;;;19.70;99.90;;;;;;4947652;28;20020;-74
2023/06/16 06:47:25;;;;;;;10.57;5.68;;;19.90;99.90;;;;;;4946360;29;20023;-74
2023/06/16 06:49:50;;;;;;;11.07;5.95;;;20.00;99.90;;;;;;4952610;28;20042;-75
2023/06/16 06:52:16;;;;;;;13.75;5.95;;;20.10;99.90;;;;;;4950309;28;20035;-75
2023/06/16 06:54:42;;;;;;;10.90;5.65;;;20.20;99.90;;;;;;4949833;29;20024;-76
2023/06/16 06:57:07;;;;;;;13.10;5.75;;;20.40;99.90;;;;;;4953202;28;20058;-73
2023/06/16 06:59:33;;;;;;;9.10;5.38;;;20.60;99.90;;;;;;4953586;28;20114;-74
2023/06/16 07:01:59;;;;;;;16.45;5.10;;;20.70;99.90;;;;;;4950864;28;20023;-75
2023/06/16 07:04:25;;;;;;;7.43;4.90;;;20.80;99.90;;;;;;4953303;28;20034;-75
2023/06/16 07:06:51;;;;;;;9.48;5.45;;;21.00;99.90;;;;;;4953315;28;20020;-74
2023/06/16 07:09:17;;;;;;;8.57;4.80;;;21.10;99.90;;;;;;4953382;28;20411;-76
2023/06/16 07:11:43;;;;;;;14.10;5.47;;;21.20;99.90;;;;;;4940080;28;20086;-74
2023/06/16 07:14:08;;;;;;;10.20;5.55;;;21.40;99.90;;;;;;4951611;29;20459;-74
2023/06/16 07:16:34;;;;;;;12.23;5.68;;;21.50;99.50;;;;;;4944522;29;20378;-74
2023/06/16 07:19:01;;;;;;;11.57;5.32;;;21.70;99.10;;;;;;4953664;28;20038;-74
2023/06/16 07:21:27;;;;;;;8.20;5.28;;;21.90;98.40;;;;;;4945068;29;20114;-73
2023/06/16 07:23:53;;;;;;;11.32;4.95;;;22.00;97.60;;;;;;4956440;28;20019;-73
2023/06/16 07:26:19;;;;;;;10.90;4.82;;;22.10;96.90;;;;;;4950725;28;20024;-74
2023/06/16 07:28:44;;;;;;;12.07;4.70;;;22.20;96.50;;;;;;4949188;29;20031;-74
2023/06/16 07:31:10;;;;;;;54.58;6.53;;;22.40;96.00;;;;;;4955930;28;20443;-74
2023/06/16 07:33:36;;;;;;;13.13;4.63;;;22.60;95.40;;;;;;4955100;28;20066;-74
2023/06/16 07:36:02;;;;;;;10.77;4.80;;;22.70;94.70;;;;;;4956412;28;20422;-74
2023/06/16 07:38:28;;;;;;;11.68;4.95;;;22.90;94.10;;;;;;4951360;28;20114;-74
2023/06/16 07:40:54;;;;;;;35.20;7.13;;;23.10;93.30;;;;;;4951198;29;20103;-74
2023/06/16 07:43:21;;;;;;;20.95;5.15;;;23.30;92.80;;;;;;4955993;28;20296;-74
2023/06/16 07:45:46;;;;;;;6.80;4.32;;;23.50;92.30;;;;;;4956111;28;20062;-75
2023/06/16 07:48:13;;;;;;;7.75;4.50;;;23.70;90.90;;;;;;4942548;28;20023;-74
2023/06/16 07:50:40;;;;;;;8.80;4.35;;;23.90;89.70;;;;;;4955984;28;20090;-75
2023/06/16 07:53:06;;;;;;;9.35;4.75;;;24.00;88.80;;;;;;4957740;28;20019;-74
2023/06/16 07:55:32;;;;;;;8.48;4.50;;;24.10;85.30;;;;;;4944609;28;20032;-75
2023/06/16 07:57:57;;;;;;;10.65;5.00;;;24.20;83.80;;;;;;4957745;28;20501;-77
2023/06/16 08:00:23;;;;;;;7.55;4.50;;;24.40;83.10;;;;;;4956928;28;20392;-76
2023/06/16 08:02:50;;;;;;;5.25;4.10;;;24.50;82.60;;;;;;4956624;28;20031;-76
2023/06/16 08:05:16;;;;;;;10.23;4.38;;;24.70;81.60;;;;;;4945576;29;20103;-76
2023/06/16 08:07:43;;;;;;;6.78;4.53;;;24.90;79.70;;;;;;4956232;28;20034;-75
2023/06/16 08:10:10;;;;;;;8.48;4.28;;;25.00;77.60;;;;;;4955647;28;20114;-74
2023/06/16 08:12:36;;;;;;;7.93;4.55;;;25.20;76.70;;;;;;4952396;28;20077;-75
2023/06/16 08:15:03;;;;;;;5.10;4.60;;;25.40;76.50;;;;;;4938084;29;20028;-74
2023/06/16 08:17:30;;;;;;;6.90;4.65;;;25.60;75.00;;;;;;4948060;29;20030;-75
2023/06/16 08:19:55;;;;;;;11.38;4.50;;;25.70;73.50;;;;;;4949714;28;20020;-75
2023/06/16 08:22:21;;;;;;;6.82;4.05;;;25.80;72.90;;;;;;4955677;28;20087;-75
2023/06/16 08:24:47;;;;;;;5.35;4.15;;;25.90;71.50;;;;;;4955524;28;20050;-75
2023/06/16 08:27:13;;;;;;;9.95;5.03;;;26.10;70.30;;;;;;4942716;28;20028;-75
2023/06/16 08:29:39;;;;;;;8.57;4.45;;;26.30;69.70;;;;;;4948246;29;20083;-75
2023/06/16 08:32:06;;;;;;;8.15;4.70;;;26.40;68.50;;;;;;4935646;29;20368;-74
2023/06/16 08:34:31;;;;;;;5.32;3.63;;;26.40;66.40;;;;;;4953621;29;20058;-71
2023/06/16 08:36:58;;;;;;;13.05;4.38;;;26.50;65.80;;;;;;4943133;28;20359;-71
2023/06/16 08:39:24;;;;;;;5.72;4.20;;;26.60;64.30;;;;;;4952066;29;20031;-72
2023/06/16 08:41:50;;;;;;;8.02;4.30;;;26.80;62.10;;;;;;4954927;28;20538;-72
2023/06/16 08:44:19;;;;;;;6.03;4.25;;;26.80;59.50;;;;;;4954880;28;20162;-75
2023/06/16 08:46:45;;;;;;;6.25;4.05;;;26.80;58.90;;;;;;4942881;29;20103;-73
2023/06/16 08:49:14;;;;;;;6.78;3.72;;;26.90;58.90;;;;;;4954736;28;20034;-74
2023/06/16 08:51:47;;;;;;;5.78;4.45;;;27.00;58.10;;;;;;4955143;28;20027;-73
2023/06/16 08:54:14;;;;;;;4.63;4.13;;;27.10;58.00;;;;;;4952411;28;20055;-74
2023/06/16 08:56:42;;;;;;;5.47;4.18;;;27.20;57.20;;;;;;4953415;28;20125;-73
2023/06/16 08:59:08;;;;;;;5.97;4.07;;;27.30;56.80;;;;;;4954792;28;20031;-73
2023/06/16 09:01:34;;;;;;;9.38;4.03;;;27.50;56.50;;;;;;4954740;28;20019;-74
2023/06/16 09:04:00;;;;;;;5.20;3.90;;;27.70;55.60;;;;;;4954478;28;20037;-74
2023/06/16 09:06:26;;;;;;;5.82;4.03;;;27.90;54.70;;;;;;4954831;28;20039;-74
2023/06/16 09:08:55;;;;;;;6.72;3.85;;;28.00;53.60;;;;;;4954663;28;20121;-74
2023/06/16 09:11:24;;;;;;;5.60;3.90;;;28.20;52.70;;;;;;4954699;28;20037;-74
2023/06/16 09:13:55;;;;;;;5.85;3.92;;;28.20;51.70;;;;;;4954524;28;20545;-74
2023/06/16 09:16:22;;;;;;;8.95;3.95;;;28.30;50.10;;;;;;4954905;28;20074;-74
2023/06/16 09:18:49;;;;;;;6.25;4.00;;;28.40;49.10;;;;;;4954562;28;20048;-74
2023/06/16 09:21:20;;;;;;;5.05;3.80;;;28.50;48.80;;;;;;4954762;28;20037;-74
2023/06/16 09:23:47;;;;;;;6.57;3.90;;;28.60;49.10;;;;;;4942929;28;20020;-74
2023/06/16 09:26:13;;;;;;;5.55;3.72;;;28.70;49.00;;;;;;4953738;29;20024;-74
2023/06/16 09:28:39;;;;;;;5.43;3.70;;;28.80;48.50;;;;;;4954371;28;20035;-74
2023/06/16 09:31:11;;;;;;;6.80;3.63;;;28.90;48.20;;;;;;4953869;28;20023;-74
2023/06/16 09:33:37;;;;;;;5.88;3.55;;;29.00;47.90;;;;;;4954332;28;20110;-74
2023/06/16 09:36:03;;;;;;;6.78;3.80;;;29.10;46.90;;;;;;4951759;28;20134;-74
2023/06/16 09:38:35;;;;;;;6.15;3.70;;;29.20;46.60;;;;;;4943791;29;20379;-74
2023/06/16 09:41:09;;;;;;;7.80;3.85;;;29.30;45.60;;;;;;4952470;28;20019;-74
2023/06/16 09:43:37;;;;;;;6.47;3.78;;;29.40;45.20;;;;;;4947278;28;20337;-73
2023/06/16 09:46:02;;;;;;;8.30;4.28;;;29.40;45.30;;;;;;4949068;29;20375;-74
2023/06/16 09:48:34;;;;;;;7.35;4.13;;;29.40;44.70;;;;;;4953787;28;20038;-74
2023/06/16 09:50:59;;;;;;;6.05;3.80;;;29.40;44.50;;;;;;4954053;28;20039;-74
2023/06/16 09:53:26;;;;;;;5.05;4.00;;;29.30;44.60;;;;;;4952105;28;20030;-74
2023/06/16 09:55:53;;;;;;;4.93;3.72;;;29.30;45.00;;;;;;4942027;29;20070;-74
2023/06/16 09:58:20;;;;;;;8.75;4.10;;;29.30;44.40;;;;;;4953794;28;20394;-74
2023/06/16 10:00:45;;;;;;;4.43;3.95;;;29.30;44.60;;;;;;4954140;28;20023;-74
2023/06/16 10:03:13;;;;;;;5.15;3.90;;;29.20;44.30;;;;;;4951520;28;20027;-74
2023/06/16 10:05:40;;;;;;;9.25;4.18;;;29.20;44.70;;;;;;4947833;29;20126;-74
2023/06/16 10:08:07;;;;;;;5.65;3.97;;;29.40;44.70;;;;;;4953699;28;20023;-74
2023/06/16 10:10:33;;;;;;;7.13;4.13;;;29.60;44.50;;;;;;4953812;28;20031;-74
2023/06/16 10:13:03;;;;;;;5.97;3.83;;;29.60;44.00;;;;;;4953684;28;20023;-74
2023/06/16 10:15:34;;;;;;;5.20;4.00;;;29.50;43.60;;;;;;4953881;28;20105;-74
2023/06/16 10:18:05;;;;;;;6.25;4.00;;;29.50;44.10;;;;;;4953608;28;20344;-74
2023/06/16 10:20:34;;;;;;;6.95;4.07;;;29.60;44.20;;;;;;4953665;28;20073;-74
2023/06/16 10:23:00;;;;;;;5.22;3.88;;;29.70;43.30;;;;;;4953408;28;20503;-74
2023/06/16 10:25:28;;;;;;;5.43;4.07;;;29.70;43.20;;;;;;4953576;28;20055;-74
2023/06/16 10:27:55;;;;;;;5.65;3.85;;;29.70;43.00;;;;;;4946314;28;20020;-74
2023/06/16 10:30:23;;;;;;;5.07;3.53;;;29.90;43.20;;;;;;4953319;28;20043;-73
2023/06/16 10:32:55;;;;;;;4.30;3.72;;;30.10;43.00;;;;;;4948061;29;20471;-74
2023/06/16 10:35:22;;;;;;;4.47;3.80;;;30.40;42.80;;;;;;4937972;29;20082;-74
2023/06/16 10:37:55;;;;;;;5.55;3.90;;;30.60;42.00;;;;;;4950567;29;20584;-75
2023/06/16 10:40:23;;;;;;;5.38;4.03;;;30.60;41.50;;;;;;4953397;28;20062;-75
2023/06/16 10:42:52;;;;;;;6.15;4.47;;;30.60;41.10;;;;;;4941504;28;20180;-74
2023/06/16 10:45:32;;;;;;;5.45;4.00;;;30.50;41.20;;;;;;4953181;28;20489;-75
2023/06/16 10:48:10;;;;;;;5.70;3.60;;;30.50;41.70;;;;;;4953177;28;20023;-75
2023/06/16 10:50:39;;;;;;;6.85;4.07;;;30.60;41.40;;;;;;4953276;28;20474;-74
2023/06/16 10:53:11;;;;;;;5.50;4.00;;;30.70;41.20;;;;;;4953500;28;20030;-74
2023/06/16 10:55:38;;;;;;;11.15;4.00;;;30.80;40.50;;;;;;4943121;29;20034;-75
2023/06/16 10:58:16;;;;;;;6.45;4.18;;;30.70;40.30;;;;;;4955951;28;20151;-75
2023/06/16 11:00:42;;;;;;;4.35;3.53;;;30.70;39.70;;;;;;4957381;28;20050;-74
2023/06/16 11:03:08;;;;;;;6.15;3.60;;;30.60;39.90;;;;;;4954064;28;20038;-74
2023/06/16 11:05:38;;;;;;;8.43;4.05;;;30.50;39.30;;;;;;4957243;28;20487;-74
2023/06/16 11:08:05;;;;;;;6.80;4.18;;;30.30;40.20;;;;;;4957061;28;20027;-75
2023/06/16 11:10:52;;;;;;;6.97;4.10;;;30.30;40.20;;;;;;4957421;28;20150;-74
2023/06/16 11:13:23;;;;;;;7.25;3.97;;;30.30;39.70;;;;;;4956785;28;20032;-74
2023/06/16 11:15:51;;;;;;;6.80;3.83;;;30.40;39.60;;;;;;4956975;28;20020;-74
2023/06/16 11:18:18;;;;;;;5.60;4.20;;;30.40;39.20;;;;;;4957148;28;20028;-75
2023/06/16 11:20:44;;;;;;;7.05;4.10;;;30.20;39.50;;;;;;4956535;28;20038;-75
2023/06/16 11:23:10;;;;;;;6.10;4.03;;;30.10;39.60;;;;;;4956513;28;20394;-75
2023/06/16 11:25:39;;;;;;;5.65;4.03;;;30.00;39.40;;;;;;4957969;28;20722;-80
2023/06/16 11:28:06;;;;;;;7.75;4.20;;;30.00;39.20;;;;;;4960918;28;20118;-78
2023/06/16 11:30:35;;;;;;;9.43;3.97;;;29.90;39.80;;;;;;4957840;28;20038;-77
2023/06/16 11:33:01;;;;;;;4.85;3.83;;;30.10;40.40;;;;;;4956920;28;20045;-72
2023/06/16 11:35:31;;;;;;;6.03;4.03;;;30.30;39.60;;;;;;4957715;28;20028;-79
2023/06/16 11:37:56;;;;;;;6.32;3.92;;;30.40;39.50;;;;;;4960167;28;20110;-78
2023/06/16 11:40:24;;;;;;;8.80;4.03;;;30.40;39.40;;;;;;4958783;28;20051;-78
2023/06/16 11:43:08;;;;;;;5.35;3.80;;;30.40;39.10;;;;;;4956234;29;20057;-79
2023/06/16 11:45:37;;;;;;;9.20;4.03;;;30.20;40.30;;;;;;4960256;28;20034;-78
2023/06/16 11:48:05;;;;;;;6.95;4.38;;;30.10;40.80;;;;;;4961322;28;20030;-72
2023/06/16 11:50:31;;;;;;;9.07;4.70;;;29.90;41.40;;;;;;4956093;28;20042;-72
2023/06/16 11:52:57;;;;;;;7.03;3.85;;;29.90;42.30;;;;;;4949781;28;20023;-73
2023/06/16 11:55:24;;;;;;;5.53;4.05;;;29.90;42.10;;;;;;4943969;28;20042;-73
2023/06/16 11:57:49;;;;;;;6.25;4.00;;;29.90;41.40;;;;;;4954505;29;20042;-72
2023/06/16 12:00:16;;;;;;;8.00;4.22;;;29.90;41.80;;;;;;4942888;28;20024;-73
2023/06/16 12:02:44;;;;;;;5.93;4.20;;;30.00;41.90;;;;;;4955803;28;20163;-73
2023/06/16 12:05:17;;;;;;;6.75;4.13;;;29.90;41.50;;;;;;4952143;28;20035;-73
2023/06/16 12:07:42;;;;;;;8.30;4.05;;;29.50;42.40;;;;;;4947959;28;20027;-75
2023/06/16 12:10:08;;;;;;;4.65;4.13;;;29.40;43.20;;;;;;4956629;28;20029;-76
2023/06/16 12:12:42;;;;;;;5.82;3.92;;;29.40;43.20;;;;;;4944409;28;20697;-74
2023/06/16 12:15:08;;;;;;;7.30;3.90;;;29.30;42.60;;;;;;4947133;28;20038;-76
2023/06/16 12:17:34;;;;;;;4.95;4.05;;;29.00;43.20;;;;;;4955513;28;20024;-73
2023/06/16 12:20:04;;;;;;;7.95;4.38;;;29.00;43.50;;;;;;4941191;28;20100;-74
2023/06/16 12:22:38;;;;;;;6.05;3.85;;;29.00;42.90;;;;;;4949105;29;20043;-72
2023/06/16 12:25:16;;;;;;;5.32;3.97;;;28.80;43.10;;;;;;4944924;28;20486;-72
2023/06/16 12:27:51;;;;;;;8.13;4.68;;;28.70;42.80;;;;;;4944654;29;20036;-72
2023/06/16 12:30:17;;;;;;;;;;;28.80;42.90;;;;;;4942668;29;20043;-71
2023/06/16 12:32:45;;;;;;;7.88;4.40;;;28.70;42.40;;;;;;4941113;29;19970;-71
2023/06/16 12:35:23;;;;;;;7.90;3.78;;;28.60;42.40;;;;;;4941247;29;20060;-72
2023/06/16 12:37:49;;;;;;;5.22;3.63;;;28.60;42.30;;;;;;4949074;28;20031;-72
2023/06/16 12:40:16;;;;;;;4.85;3.50;;;28.50;42.30;;;;;;4940933;29;20083;-71
2023/06/16 12:42:42;;;;;;;6.88;4.05;;;28.50;42.20;;;;;;4943058;29;20044;-72